Time;durP1;ratioP1;P1;durP2;ratioP2;P2;SDS_P1;SDS_P2;PMS_P1;PMS_P2;Temp;Humidity;BMP_temperature;BMP_pressure;BME280_temperature;BME280_humidity;BME280_pressure;Samples;Min_cycle;Max_cycle;Signal;HPM_P1;HPM_P2
2021/03/10 00:00:58;;;;;;;31.20;16.02;;;;;;;7.27;68.49;100322.78;6163518;23;20167;-74
2021/03/10 00:03:23;;;;;;;26.95;15.63;;;;;;;7.35;68.24;100336.00;6189219;23;20008;-73
2021/03/10 00:05:49;;;;;;;24.75;15.40;;;;;;;7.27;68.50;100329.06;6188301;23;20008;-73
2021/03/10 00:08:14;;;;;;;24.73;14.30;;;;;;;7.36;68.44;100325.91;6188689;23;20019;-72
2021/03/10 00:10:40;;;;;;;30.42;16.42;;;;;;;7.35;68.58;100336.00;6212800;23;20062;-73
2021/03/10 00:13:05;;;;;;;29.40;15.65;;;;;;;7.31;68.60;100329.38;6213270;23;20055;-73
2021/03/10 00:15:31;;;;;;;30.92;16.23;;;;;;;7.29;69.18;100326.91;6212496;23;20012;-73
2021/03/10 00:17:56;;;;;;;28.42;15.23;;;;;;;7.24;68.54;100326.84;6182732;23;20008;-72
2021/03/10 00:20:22;;;;;;;28.33;15.70;;;;;;;7.31;69.13;100329.38;6187322;23;20011;-73
2021/03/10 00:22:48;;;;;;;25.70;15.18;;;;;;;7.31;68.75;100323.94;6229082;23;20008;-72
2021/03/10 00:25:14;;;;;;;23.67;14.07;;;;;;;7.28;69.14;100319.00;6211620;23;20079;-72
2021/03/10 00:27:40;;;;;;;23.48;14.02;;;;;;;7.29;68.31;100326.09;6163170;23;20032;-74
2021/03/10 00:30:09;;;;;;;34.13;15.68;;;;;;;7.39;68.79;100339.03;6186856;23;20422;-72
2021/03/10 00:32:35;;;;;;;28.67;14.32;;;;;;;7.32;69.13;100352.81;6214347;23;20001;-73
2021/03/10 00:35:02;;;;;;;24.40;15.20;;;;;;;7.29;69.35;100328.81;6239860;23;20005;-73
2021/03/10 00:37:28;;;;;;;27.45;14.15;;;;;;;7.32;69.00;100322.88;6189603;23;20296;-71
2021/03/10 00:39:54;;;;;;;33.50;15.00;;;;;;;7.27;68.85;100317.34;6237880;23;20328;-72
2021/03/10 00:42:19;;;;;;;20.50;14.05;;;;;;;7.27;69.10;100317.34;6184581;23;20006;-74
2021/03/10 00:44:46;;;;;;;28.63;14.43;;;;;;;7.40;68.87;100327.91;6236611;23;20084;-73
2021/03/10 00:47:12;;;;;;;24.10;14.43;;;;;;;7.33;69.17;100313.66;6188250;23;20008;-74
2021/03/10 00:49:40;;;;;;;26.00;15.82;;;;;;;7.35;69.33;100325.09;6184481;23;20071;-73
2021/03/10 00:52:06;;;;;;;24.27;14.07;;;;;;;7.36;69.09;100318.59;6215282;23;20071;-74
2021/03/10 00:54:32;;;;;;;26.58;15.52;;;;;;;7.39;69.00;100320.81;6212467;23;20031;-75
2021/03/10 00:56:57;;;;;;;23.98;13.93;;;;;;;7.45;69.57;100319.00;6213757;23;20320;-74
2021/03/10 00:59:23;;;;;;;28.60;15.48;;;;;;;7.42;69.09;100312.16;6238742;23;20015;-76
2021/03/10 01:01:49;;;;;;;26.00;13.38;;;;;;;7.49;69.41;100310.09;6185673;23;20008;-75
2021/03/10 01:04:14;;;;;;;32.50;13.57;;;;;;;7.46;69.05;100298.88;6213487;23;20083;-73
2021/03/10 01:06:40;;;;;;;24.13;14.60;;;;;;;7.53;68.79;100309.59;6183297;23;20070;-73
2021/03/10 01:09:06;;;;;;;20.77;13.73;;;;;;;7.46;69.04;100305.16;6237745;23;20008;-74
2021/03/10 01:11:32;;;;;;;26.95;14.60;;;;;;;7.50;68.91;100321.81;6219495;23;20059;-73
2021/03/10 01:13:57;;;;;;;20.17;13.40;;;;;;;7.44;69.26;100312.72;6199524;23;20032;-73
2021/03/10 01:16:23;;;;;;;29.85;14.80;;;;;;;7.40;69.98;100311.56;6231986;23;20028;-74
2021/03/10 01:18:48;;;;;;;27.65;13.57;;;;;;;7.42;69.60;100308.63;6250678;23;20246;-74
2021/03/10 01:21:14;;;;;;;22.83;13.98;;;;;;;7.43;70.32;100313.81;6215989;23;20332;-75
2021/03/10 01:23:39;;;;;;;28.13;14.65;;;;;;;7.40;70.26;100306.13;6216244;23;20025;-73
2021/03/10 01:26:05;;;;;;;32.13;14.68;;;;;;;7.38;70.11;100291.16;6189680;23;20057;-74
2021/03/10 01:28:30;;;;;;;22.73;13.02;;;;;;;7.42;69.88;100293.13;6163577;23;20009;-73
2021/03/10 01:30:58;;;;;;;30.90;14.15;;;;;;;7.39;69.72;100282.75;6211122;23;20017;-73
2021/03/10 01:33:23;;;;;;;24.85;14.77;;;;;;;7.44;70.64;100282.81;6240099;23;20011;-73
2021/03/10 01:35:49;;;;;;;24.13;13.20;;;;;;;7.40;69.73;100273.47;6213049;23;20324;-73
2021/03/10 01:38:14;;;;;;;31.90;13.80;;;;;;;7.44;70.12;100280.06;6164321;23;20013;-72
2021/03/10 01:40:40;;;;;;;25.10;13.27;;;;;;;7.47;70.61;100267.88;6187029;23;20017;-74
2021/03/10 01:43:07;;;;;;;25.77;14.38;;;;;;;7.53;69.78;100266.06;6162859;23;20016;-72
2021/03/10 01:45:34;;;;;;;24.17;13.82;;;;;;;7.55;69.67;100259.31;6212967;23;20127;-74
2021/03/10 01:48:01;;;;;;;19.65;12.85;;;;;;;7.57;69.43;100264.50;6187551;23;20005;-73
2021/03/10 01:50:27;;;;;;;22.48;14.13;;;;;;;7.60;69.90;100258.56;6213028;23;20004;-72
2021/03/10 01:52:55;;;;;;;29.83;13.85;;;;;;;7.59;69.79;100260.44;6215290;23;20395;-72
2021/03/10 01:55:30;;;;;;;27.90;14.43;;;;;;;7.62;69.46;100242.78;6161375;23;20009;-74
2021/03/10 01:57:58;;;;;;;;;;;;;;;7.64;69.34;100246.09;6188053;23;20005;-71
2021/03/10 02:00:25;;;;;;;22.35;13.63;;;;;;;7.55;70.21;100247.56;6186045;23;19996;-71
2021/03/10 02:02:51;;;;;;;28.50;13.85;;;;;;;7.60;70.31;100244.94;6191209;23;20009;-77
2021/03/10 02:05:22;;;;;;;34.95;15.95;;;;;;;7.60;69.96;100236.78;6235958;23;20058;-75
2021/03/10 02:08:09;;;;;;;34.78;15.57;;;;;;;7.65;69.75;100234.13;6216446;23;20365;-75
2021/03/10 02:10:47;;;;;;;26.13;15.05;;;;;;;7.69;69.88;100235.25;6186713;23;20417;-76
2021/03/10 02:13:23;;;;;;;37.75;16.13;;;;;;;7.65;70.03;100220.50;6213243;23;20001;-77
2021/03/10 02:16:01;;;;;;;29.38;15.07;;;;;;;7.62;69.79;100216.41;6213974;23;20043;-78
2021/03/10 02:18:37;;;;;;;30.88;15.93;;;;;;;7.63;69.60;100212.59;6214425;23;20001;-77
2021/03/10 02:21:13;;;;;;;30.50;15.38;;;;;;;7.61;69.44;100200.34;6186140;23;20011;-77
2021/03/10 02:23:58;;;;;;;29.92;16.00;;;;;;;7.71;69.70;100222.25;6206964;22;20017;-76
2021/03/10 02:26:34;;;;;;;31.95;15.77;;;;;;;7.71;69.73;100208.63;6189771;23;20004;-78
2021/03/10 02:29:08;;;;;;;28.50;15.63;;;;;;;7.71;69.31;100208.63;6210690;23;20072;-76
2021/03/10 02:31:38;;;;;;;35.10;17.27;;;;;;;7.64;69.10;100203.38;6213912;23;20399;-76
2021/03/10 02:34:06;;;;;;;33.38;17.17;;;;;;;7.63;69.73;100200.91;6186683;23;20039;-77
2021/03/10 02:36:33;;;;;;;31.85;15.95;;;;;;;7.64;69.43;100183.50;6189394;23;20327;-77
2021/03/10 02:39:01;;;;;;;26.73;13.73;;;;;;;7.74;69.20;100191.78;6189169;23;20020;-75
2021/03/10 02:41:29;;;;;;;29.25;15.18;;;;;;;7.72;69.02;100182.22;6214017;23;20009;-78
2021/03/10 02:44:14;;;;;;;36.22;16.95;;;;;;;7.74;69.01;100189.06;6216074;23;20005;-76
2021/03/10 02:46:40;;;;;;;32.58;16.83;;;;;;;7.67;69.39;100180.28;6186460;23;20008;-77
2021/03/10 02:49:07;;;;;;;33.58;16.52;;;;;;;7.63;69.48;100157.34;6236460;23;20091;-76
2021/03/10 02:51:37;;;;;;;34.47;16.80;;;;;;;7.64;68.68;100159.00;6215645;23;20023;-76
2021/03/10 02:54:05;;;;;;;45.10;17.80;;;;;;;7.66;69.77;100156.84;6214183;23;20084;-75
2021/03/10 02:56:32;;;;;;;30.25;16.20;;;;;;;7.65;68.86;100171.53;6214477;23;20024;-76
2021/03/10 02:58:58;;;;;;;37.50;16.67;;;;;;;7.57;69.05;100159.19;6236766;23;20044;-78
2021/03/10 03:01:23;;;;;;;39.33;18.00;;;;;;;7.63;69.37;100158.16;6215949;23;20495;-75
2021/03/10 03:03:48;;;;;;;36.22;17.88;;;;;;;7.61;68.82;100156.78;6214324;23;20359;-75
2021/03/10 03:06:14;;;;;;;38.03;15.82;;;;;;;7.58;68.30;100149.09;6211607;23;20035;-76
2021/03/10 03:08:39;;;;;;;32.33;16.13;;;;;;;7.59;68.31;100137.16;6239639;23;20062;-75
2021/03/10 03:11:06;;;;;;;33.78;17.15;;;;;;;7.58;68.38;100166.28;6188882;23;20001;-76
2021/03/10 03:13:33;;;;;;;32.33;16.65;;;;;;;7.54;67.99;100156.16;6213889;23;20011;-74
2021/03/10 03:16:01;;;;;;;34.95;15.98;;;;;;;7.55;68.19;100139.56;6187086;23;20028;-74
2021/03/10 03:18:28;;;;;;;28.42;15.85;;;;;;;7.57;67.53;100131.97;6184236;23;20062;-74
2021/03/10 03:20:54;;;;;;;27.80;15.35;;;;;;;7.59;67.65;100116.19;6211071;23;20007;-76
2021/03/10 03:23:23;;;;;;;33.00;16.38;;;;;;;7.58;67.74;100116.44;6208277;23;20021;-74
2021/03/10 03:25:49;;;;;;;41.08;17.05;;;;;;;7.62;67.73;100114.88;6240236;23;20055;-71
2021/03/10 03:28:18;;;;;;;33.60;16.42;;;;;;;7.49;67.48;100103.31;6213377;23;20013;-70
2021/03/10 03:30:46;;;;;;;41.00;16.85;;;;;;;7.58;67.37;100100.13;6183878;23;20011;-71
2021/03/10 03:33:15;;;;;;;41.85;16.92;;;;;;;7.61;67.20;100094.19;6184884;23;20011;-72
2021/03/10 03:35:43;;;;;;;30.98;15.57;;;;;;;7.62;67.37;100090.38;6202385;23;20036;-70
2021/03/10 03:38:09;;;;;;;35.33;16.90;;;;;;;7.64;68.04;100099.13;6186038;23;20013;-72
2021/03/10 03:40:35;;;;;;;36.78;17.42;;;;;;;7.61;67.27;100102.38;6187727;23;20508;-72
2021/03/10 03:43:01;;;;;;;34.75;17.50;;;;;;;7.61;66.97;100094.19;6211433;23;20021;-72
2021/03/10 03:45:26;;;;;;;39.65;17.60;;;;;;;7.56;66.85;100096.84;6212559;23;20005;-70
2021/03/10 03:47:54;;;;;;;34.08;17.45;;;;;;;7.55;67.68;100096.03;6210037;23;20504;-72
2021/03/10 03:50:22;;;;;;;42.63;18.73;;;;;;;7.55;67.71;100084.31;6187523;23;20034;-71
2021/03/10 03:52:48;;;;;;;41.47;18.58;;;;;;;7.49;67.50;100087.00;6188189;23;20332;-71
2021/03/10 03:55:14;;;;;;;31.55;17.23;;;;;;;7.48;67.21;100070.91;6208924;23;20023;-71
2021/03/10 03:57:40;;;;;;;34.55;17.25;;;;;;;7.40;67.73;100091.22;6208275;23;20012;-71
2021/03/10 04:00:08;;;;;;;37.38;16.13;;;;;;;7.40;67.19;100074.88;6204144;23;20331;-71
2021/03/10 04:02:34;;;;;;;33.53;17.23;;;;;;;7.42;67.13;100077.38;6183989;23;20070;-71
2021/03/10 04:04:59;;;;;;;40.13;17.50;;;;;;;7.42;67.54;100071.94;6212200;23;20008;-71
2021/03/10 04:07:25;;;;;;;60.15;18.30;;;;;;;7.40;67.40;100068.63;6212255;23;20009;-71
2021/03/10 04:09:50;;;;;;;29.63;17.48;;;;;;;7.36;67.31;100065.63;6220652;23;20120;-71
2021/03/10 04:12:16;;;;;;;44.30;18.25;;;;;;;7.40;67.29;100052.31;6218367;23;20008;-70
2021/03/10 04:14:41;;;;;;;39.60;16.45;;;;;;;7.35;68.09;100061.25;6226302;23;20059;-71
2021/03/10 04:17:07;;;;;;;36.03;16.17;;;;;;;7.28;68.83;100057.88;6229485;23;20030;-70
2021/03/10 04:19:32;;;;;;;32.22;17.38;;;;;;;7.23;69.04;100069.53;6227631;23;20008;-70
2021/03/10 04:21:58;;;;;;;36.38;19.27;;;;;;;7.13;70.09;100055.81;6220604;23;20329;-70
2021/03/10 04:24:23;;;;;;;42.92;18.15;;;;;;;7.05;71.23;100054.31;6212907;23;20023;-70
2021/03/10 04:26:49;;;;;;;40.38;17.40;;;;;;;6.87;72.32;100051.91;6215265;23;20055;-71
2021/03/10 04:29:14;;;;;;;38.60;19.77;;;;;;;6.69;73.84;100051.13;6187259;23;20009;-70
2021/03/10 04:31:39;;;;;;;42.13;19.83;;;;;;;6.57;74.91;100053.09;6185900;23;20446;-71
2021/03/10 04:34:05;;;;;;;39.47;20.15;;;;;;;6.46;75.01;100042.06;6188150;23;20020;-70
2021/03/10 04:36:33;;;;;;;43.90;20.63;;;;;;;6.30;75.64;100021.19;6207527;23;20009;-75
2021/03/10 04:38:59;;;;;;;49.90;21.52;;;;;;;6.26;76.03;100036.31;6189233;23;20011;-75
2021/03/10 04:41:24;;;;;;;44.00;19.05;;;;;;;6.17;75.91;100033.19;6220453;23;20008;-75
2021/03/10 04:43:50;;;;;;;34.33;17.92;;;;;;;6.09;76.11;100025.47;6219109;23;20358;-78
2021/03/10 04:46:18;;;;;;;35.80;19.25;;;;;;;6.07;75.92;100020.25;6221470;23;20008;-75
2021/03/10 04:48:44;;;;;;;38.92;19.52;;;;;;;6.10;75.92;100021.66;6219144;23;20008;-74
2021/03/10 04:51:09;;;;;;;44.90;19.83;;;;;;;6.15;75.70;100020.94;6242611;23;20035;-75
2021/03/10 04:53:35;;;;;;;38.70;19.50;;;;;;;6.07;76.01;100012.13;6237659;23;20028;-76
2021/03/10 04:56:00;;;;;;;45.17;21.13;;;;;;;6.03;75.55;99997.41;6220285;23;20092;-74
2021/03/10 04:58:26;;;;;;;43.33;19.55;;;;;;;6.08;75.78;100000.19;6190328;23;20039;-75
2021/03/10 05:00:51;;;;;;;39.88;18.73;;;;;;;6.05;76.34;99991.75;6217046;23;20016;-75
2021/03/10 05:03:17;;;;;;;39.78;19.15;;;;;;;6.07;76.80;100012.13;6189212;23;20336;-74
2021/03/10 05:05:43;;;;;;;43.55;22.15;;;;;;;6.07;76.63;100003.97;6236564;23;20450;-75
2021/03/10 05:08:10;;;;;;;39.42;20.40;;;;;;;6.06;77.10;99993.38;6187972;23;20004;-75
2021/03/10 05:10:38;;;;;;;44.08;19.80;;;;;;;6.01;76.75;99969.69;6158918;23;20009;-75
2021/03/10 05:13:04;;;;;;;44.72;21.58;;;;;;;6.04;76.99;99985.47;6191059;23;20015;-75
2021/03/10 05:15:29;;;;;;;42.92;19.98;;;;;;;6.00;77.10;99968.06;6214732;23;20013;-74
2021/03/10 05:17:54;;;;;;;41.88;21.60;;;;;;;6.08;77.32;99977.69;6217270;23;20008;-75
2021/03/10 05:20:32;;;;;;;;;;;;;;;;;;;;;
2021/03/10 05:22:58;;;;;;;44.78;22.33;;;;;;;6.03;77.54;99959.41;6206437;23;20080;-74
2021/03/10 05:25:23;;;;;;;45.42;20.73;;;;;;;6.04;77.53;99971.09;6217078;23;20076;-74
2021/03/10 05:27:49;;;;;;;42.47;19.05;;;;;;;5.95;77.94;99948.94;6190632;23;20348;-74
2021/03/10 05:30:16;;;;;;;38.85;20.48;;;;;;;5.95;77.94;99948.94;6186739;23;20019;-73
2021/03/10 05:32:41;;;;;;;40.45;19.83;;;;;;;5.96;78.55;99950.59;6209060;23;19996;-75
2021/03/10 05:35:10;;;;;;;47.45;21.73;;;;;;;5.93;78.36;99946.47;6213315;23;20423;-73
2021/03/10 05:37:41;;;;;;;46.95;20.73;;;;;;;5.88;78.51;99949.09;6214241;23;20012;-74
2021/03/10 05:40:08;;;;;;;31.35;16.40;;;;;;;5.93;78.18;99951.91;6215515;23;20008;-74
2021/03/10 05:42:39;;;;;;;34.40;17.35;;;;;;;5.94;78.35;99941.84;6240665;23;20004;-73
2021/03/10 05:45:13;;;;;;;34.38;17.88;;;;;;;5.98;78.65;99943.03;6216127;23;20009;-74
2021/03/10 05:47:41;;;;;;;37.78;18.13;;;;;;;6.00;78.07;99938.19;6211804;23;20458;-73
2021/03/10 05:50:07;;;;;;;38.67;18.50;;;;;;;6.02;78.68;99933.34;6210034;23;20501;-73
2021/03/10 05:52:37;;;;;;;36.08;15.55;;;;;;;6.04;78.24;99927.66;6237893;22;20005;-73
2021/03/10 05:55:06;;;;;;;27.48;14.80;;;;;;;6.03;78.82;99923.28;6214735;23;20036;-75
2021/03/10 05:57:42;;;;;;;;;;;;;;;;;;;;;
2021/03/10 06:00:13;;;;;;;38.85;15.57;;;;;;;5.96;79.18;99901.72;6253958;22;20099;-73
2021/03/10 06:02:38;;;;;;;25.55;13.20;;;;;;;6.09;79.10;99923.13;6211116;23;20024;-74
2021/03/10 06:05:16;;;;;;;31.48;15.43;;;;;;;6.09;78.99;99906.84;6200559;23;20008;-75
2021/03/10 06:07:41;;;;;;;29.65;14.23;;;;;;;6.15;79.20;99920.47;6213468;23;20423;-75
2021/03/10 06:10:07;;;;;;;35.10;15.15;;;;;;;6.13;79.86;99917.19;6208404;23;20008;-75
2021/03/10 06:12:41;;;;;;;31.35;13.25;;;;;;;6.13;79.52;99896.28;6210781;23;20357;-73
2021/03/10 06:15:24;;;;;;;36.83;14.93;;;;;;;6.14;79.97;99873.50;6256371;22;20083;-73
2021/03/10 06:17:52;;;;;;;28.65;12.07;;;;;;;6.24;80.50;99886.41;6215268;23;20011;-74
2021/03/10 06:20:34;;;;;;;33.28;13.15;;;;;;;6.22;80.68;99872.25;6208762;23;20076;-73
2021/03/10 06:23:03;;;;;;;24.15;12.90;;;;;;;6.28;80.84;99880.22;6206870;22;20423;-75
2021/03/10 06:25:37;;;;;;;28.45;13.65;;;;;;;6.20;81.16;99860.84;6265544;22;20169;-74
2021/03/10 06:28:03;;;;;;;34.83;13.93;;;;;;;6.24;81.49;99853.84;6244319;23;20000;-74
2021/03/10 06:30:42;;;;;;;29.45;14.23;;;;;;;6.29;81.75;99856.59;6261063;22;20386;-73
2021/03/10 06:33:09;;;;;;;22.40;12.88;;;;;;;6.22;81.68;99831.53;6213657;23;20004;-73
2021/03/10 06:35:36;;;;;;;25.88;12.38;;;;;;;6.29;81.72;99824.03;6214885;23;20438;-74
2021/03/10 06:38:11;;;;;;;27.92;12.07;;;;;;;6.42;82.13;99836.41;6243811;23;20051;-74
2021/03/10 06:40:59;;;;;;;16.75;11.50;;;;;;;6.51;81.80;99843.03;6216817;23;20319;-76
2021/03/10 06:43:36;;;;;;;19.80;12.55;;;;;;;6.50;82.09;99835.13;6237236;23;20007;-75
2021/03/10 06:46:21;;;;;;;23.77;12.10;;;;;;;6.53;82.06;99826.50;6267563;22;20311;-74
2021/03/10 06:49:06;;;;;;;28.50;12.20;;;;;;;6.54;81.51;99819.97;6240955;23;20484;-74
2021/03/10 06:51:36;;;;;;;31.92;15.05;;;;;;;6.57;82.04;99819.47;6240450;23;20540;-74
2021/03/10 06:54:15;;;;;;;29.02;14.30;;;;;;;6.54;82.43;99807.22;6208984;23;20514;-74
2021/03/10 06:56:40;;;;;;;31.17;14.00;;;;;;;6.58;82.16;99800.19;6214316;23;20011;-74
2021/03/10 06:59:06;;;;;;;31.65;13.52;;;;;;;6.47;82.80;99787.59;6241008;23;20429;-74
2021/03/10 07:01:42;;;;;;;27.75;14.95;;;;;;;6.61;83.07;99804.28;6240423;23;20050;-75
2021/03/10 07:04:12;;;;;;;24.52;12.40;;;;;;;6.56;82.67;99777.91;6243471;23;20035;-75
2021/03/10 07:06:39;;;;;;;26.50;14.43;;;;;;;6.61;82.95;99804.28;6216987;23;20004;-72
2021/03/10 07:09:10;;;;;;;29.88;13.85;;;;;;;6.46;83.53;99789.47;6240424;23;20107;-72
2021/03/10 07:11:37;;;;;;;35.72;14.70;;;;;;;6.60;83.66;99808.06;6239981;23;20399;-71
2021/03/10 07:14:06;;;;;;;33.80;13.50;;;;;;;6.56;83.46;99801.53;6209952;22;20446;-71
2021/03/10 07:16:34;;;;;;;25.58;12.25;;;;;;;6.63;83.80;99796.72;6215718;23;20011;-72
2021/03/10 07:19:03;;;;;;;27.42;13.35;;;;;;;6.60;83.84;99797.22;6241599;23;20008;-74
2021/03/10 07:21:34;;;;;;;24.90;13.15;;;;;;;6.70;84.25;99791.91;6237121;23;19996;-73
2021/03/10 07:24:02;;;;;;;22.60;10.43;;;;;;;6.73;84.05;99771.53;6230063;22;20092;-72
2021/03/10 07:26:28;;;;;;;26.20;13.30;;;;;;;6.73;84.16;99779.69;6263693;22;20032;-73
2021/03/10 07:29:03;;;;;;;25.88;11.40;;;;;;;6.76;83.96;99799.03;6240382;23;20004;-74
2021/03/10 07:31:29;;;;;;;26.35;12.27;;;;;;;6.68;84.32;99779.66;6241465;23;20001;-72
2021/03/10 07:33:59;;;;;;;24.08;12.25;;;;;;;6.69;83.93;99795.69;6237442;23;20331;-72
2021/03/10 07:36:45;;;;;;;25.27;10.93;;;;;;;6.74;84.40;99798.44;6210132;23;20004;-73
2021/03/10 07:39:31;;;;;;;19.77;9.95;;;;;;;6.69;84.69;99768.53;6249661;23;20012;-72
2021/03/10 07:42:16;;;;;;;14.07;9.43;;;;;;;6.70;85.15;99774.78;6246365;23;20000;-71
2021/03/10 07:44:42;;;;;;;27.57;10.60;;;;;;;6.73;85.06;99774.25;6206430;23;20004;-71
2021/03/10 07:47:09;;;;;;;18.85;9.63;;;;;;;6.73;84.98;99772.38;6245235;23;20008;-71
2021/03/10 07:49:39;;;;;;;21.27;9.57;;;;;;;6.76;85.25;99774.59;6240954;23;20431;-76
2021/03/10 07:52:08;;;;;;;21.05;8.98;;;;;;;6.69;85.11;99768.53;6236261;23;20050;-72
2021/03/10 07:54:35;;;;;;;22.15;9.20;;;;;;;6.79;85.13;99762.34;6243042;23;20422;-72
2021/03/10 07:57:11;;;;;;;20.17;9.45;;;;;;;6.77;85.51;99775.38;6233410;23;20096;-72
2021/03/10 07:59:38;;;;;;;17.50;9.82;;;;;;;6.84;85.17;99788.78;6240602;23;20083;-72
2021/03/10 08:02:06;;;;;;;20.10;9.73;;;;;;;6.78;85.07;99766.16;6238328;23;20066;-72
2021/03/10 08:04:33;;;;;;;15.05;8.90;;;;;;;6.76;85.75;99774.59;6242077;23;20500;-72
2021/03/10 08:06:59;;;;;;;25.48;8.43;;;;;;;6.74;85.49;99768.56;6246191;23;20004;-72
2021/03/10 08:09:27;;;;;;;25.05;10.90;;;;;;;6.76;85.64;99763.72;6211637;23;20048;-72
2021/03/10 08:12:03;;;;;;;13.63;8.30;;;;;;;6.78;85.79;99764.25;6269727;22;20039;-72
2021/03/10 08:14:40;;;;;;;21.70;9.90;;;;;;;6.68;85.80;99750.56;6212138;23;20008;-72
2021/03/10 08:17:07;;;;;;;19.58;8.55;;;;;;;6.71;86.26;99760.94;6241687;23;20089;-71
2021/03/10 08:19:35;;;;;;;14.07;8.77;;;;;;;6.75;86.05;99755.81;6237293;23;20007;-73
2021/03/10 08:22:01;;;;;;;18.70;8.45;;;;;;;6.69;86.38;99752.22;6217052;23;20319;-72
2021/03/10 08:24:27;;;;;;;15.27;9.18;;;;;;;6.76;86.35;99752.84;6217182;23;20024;-72
2021/03/10 08:26:56;;;;;;;11.68;8.15;;;;;;;6.78;86.24;99750.69;6243179;23;20008;-72
2021/03/10 08:29:22;;;;;;;12.38;7.68;;;;;;;6.87;86.53;99742.06;6238518;23;20004;-73
2021/03/10 08:31:55;;;;;;;15.70;8.75;;;;;;;6.88;86.29;99740.97;6243144;23;20003;-73
2021/03/10 08:34:38;;;;;;;16.58;8.10;;;;;;;6.93;86.32;99760.06;6212004;23;21071;-71
2021/03/10 08:37:10;;;;;;;12.07;8.05;;;;;;;6.98;86.52;99749.25;6206232;23;20014;-73
2021/03/10 08:39:44;;;;;;;10.73;7.53;;;;;;;7.02;85.78;99744.91;6213135;23;20273;-72
2021/03/10 08:42:11;;;;;;;20.30;7.88;;;;;;;6.99;86.12;99740.81;6240852;23;20008;-72
2021/03/10 08:44:45;;;;;;;12.30;7.35;;;;;;;7.04;86.43;99742.75;6214191;23;20008;-73
2021/03/10 08:47:16;;;;;;;17.27;6.90;;;;;;;7.07;85.83;99755.03;6242290;23;20078;-72
2021/03/10 08:49:43;;;;;;;10.50;6.47;;;;;;;7.11;86.11;99737.94;6239180;23;20368;-73
2021/03/10 08:52:17;;;;;;;8.65;6.75;;;;;;;7.04;86.55;99747.34;6243816;23;20004;-73
2021/03/10 08:54:46;;;;;;;17.73;6.95;;;;;;;7.04;86.85;99740.03;6240622;23;19996;-73
2021/03/10 08:57:12;;;;;;;12.57;6.40;;;;;;;7.06;86.18;99745.22;6242017;23;20000;-72
2021/03/10 08:59:38;;;;;;;8.88;6.32;;;;;;;7.10;86.27;99725.41;6217377;23;20073;-72
2021/03/10 09:02:04;;;;;;;10.90;6.68;;;;;;;7.13;86.78;99734.94;6212689;23;20016;-72
2021/03/10 09:04:29;;;;;;;10.85;5.93;;;;;;;7.10;86.06;99730.84;6240790;23;20008;-72
2021/03/10 09:06:57;;;;;;;8.27;5.72;;;;;;;7.14;86.26;99723.81;6245713;23;20234;-73
2021/03/10 09:09:23;;;;;;;13.80;6.55;;;;;;;7.15;86.33;99728.16;6256110;23;20014;-72
2021/03/10 09:11:50;;;;;;;19.63;6.30;;;;;;;7.16;86.28;99718.91;6258855;23;20000;-72
2021/03/10 09:14:16;;;;;;;15.05;6.10;;;;;;;7.14;86.69;99720.25;6263487;23;20012;-73
2021/03/10 09:16:58;;;;;;;14.63;6.00;;;;;;;7.20;86.54;99730.09;6233275;23;20008;-75
2021/03/10 09:19:34;;;;;;;14.32;5.82;;;;;;;7.16;87.06;99732.50;6243830;23;20027;-72
2021/03/10 09:22:21;;;;;;;13.02;5.93;;;;;;;7.20;86.81;99727.38;6267450;22;20011;-75
2021/03/10 09:24:52;;;;;;;11.88;5.70;;;;;;;7.20;87.04;99729.25;6242998;23;20039;-72
2021/03/10 09:27:24;;;;;;;23.70;6.63;;;;;;;7.16;87.27;99712.66;6210122;23;20701;-72
2021/03/10 09:29:51;;;;;;;8.63;5.03;;;;;;;7.18;86.67;99732.25;6242496;23;20012;-72
2021/03/10 09:32:17;;;;;;;12.20;5.38;;;;;;;7.15;86.90;99725.44;6233460;23;20038;-73
2021/03/10 09:34:53;;;;;;;8.85;5.75;;;;;;;7.14;87.58;99715.66;6242514;23;20008;-72
2021/03/10 09:37:27;;;;;;;8.75;5.32;;;;;;;7.11;87.04;99718.88;6238459;23;20058;-74
2021/03/10 09:39:54;;;;;;;12.00;5.75;;;;;;;7.12;87.28;99717.78;6213805;23;20004;-72
2021/03/10 09:42:26;;;;;;;12.05;5.90;;;;;;;7.16;87.07;99709.94;6216081;23;20012;-72
2021/03/10 09:44:53;;;;;;;8.73;5.75;;;;;;;7.19;87.51;99695.81;6215366;23;20031;-71
2021/03/10 09:47:25;;;;;;;11.50;5.47;;;;;;;7.27;87.59;99691.78;6243904;23;20003;-71
2021/03/10 09:49:57;;;;;;;5.10;4.63;;;;;;;7.28;86.97;99693.44;6214609;23;20016;-71
2021/03/10 09:52:37;;;;;;;16.88;5.97;;;;;;;7.35;87.58;99688.59;6242036;23;20003;-72
2021/03/10 09:55:06;;;;;;;9.75;5.90;;;;;;;7.27;87.29;99675.47;6240117;23;20000;-73
2021/03/10 09:57:32;;;;;;;7.85;5.05;;;;;;;7.25;87.90;99677.66;6234835;23;20038;-73
2021/03/10 09:59:58;;;;;;;5.60;4.88;;;;;;;7.25;88.07;99677.66;6237206;23;20410;-72
2021/03/10 10:02:28;;;;;;;9.85;5.78;;;;;;;7.31;87.14;99660.28;6243267;23;20053;-72
2021/03/10 10:05:00;;;;;;;10.93;5.13;;;;;;;7.30;87.71;99658.63;6241149;23;20005;-75
2021/03/10 10:07:27;;;;;;;10.35;5.38;;;;;;;7.23;87.67;99655.31;6246260;23;20518;-75
2021/03/10 10:09:54;;;;;;;11.18;5.30;;;;;;;7.27;87.34;99640.13;6243618;23;20015;-74
2021/03/10 10:12:23;;;;;;;8.15;5.22;;;;;;;7.34;87.90;99646.16;6245138;23;19995;-73
2021/03/10 10:14:49;;;;;;;9.25;4.65;;;;;;;7.27;88.02;99640.13;6236862;23;20000;-73
2021/03/10 10:17:15;;;;;;;5.18;3.72;;;;;;;7.32;87.61;99634.72;6243738;23;20331;-74
2021/03/10 10:19:41;;;;;;;6.60;4.22;;;;;;;7.35;88.09;99645.06;6216683;23;20371;-74
2021/03/10 10:22:08;;;;;;;13.07;4.65;;;;;;;7.36;88.18;99645.88;6209295;23;20086;-74
2021/03/10 10:24:34;;;;;;;3.85;3.33;;;;;;;7.43;87.97;99628.25;6256440;22;20028;-73
2021/03/10 10:26:59;;;;;;;8.88;4.18;;;;;;;7.43;88.11;99630.97;6242637;23;20015;-75
2021/03/10 10:29:25;;;;;;;13.13;3.53;;;;;;;7.49;88.04;99613.59;6215255;23;20004;-73
2021/03/10 10:31:50;;;;;;;10.93;4.00;;;;;;;7.59;87.45;99612.78;6240634;23;20079;-72
2021/03/10 10:34:16;;;;;;;3.28;3.08;;;;;;;7.66;87.27;99618.00;6215828;23;20062;-74
2021/03/10 10:36:41;;;;;;;8.95;4.00;;;;;;;7.60;88.04;99602.75;6215451;23;20007;-74
2021/03/10 10:39:07;;;;;;;2.50;2.30;;;;;;;7.73;87.80;99629.47;6217729;23;20008;-73
2021/03/10 10:41:32;;;;;;;6.97;2.53;;;;;;;7.80;87.72;99596.56;6215539;23;20319;-74
2021/03/10 10:43:58;;;;;;;7.00;2.97;;;;;;;7.80;87.40;99594.66;6243991;23;20489;-74
2021/03/10 10:46:24;;;;;;;6.68;2.65;;;;;;;7.76;87.41;99588.09;6212457;23;20012;-76
2021/03/10 10:48:50;;;;;;;3.05;2.28;;;;;;;7.81;86.98;99588.13;6240804;23;20004;-74
2021/03/10 10:51:25;;;;;;;4.55;2.63;;;;;;;7.83;87.00;99599.56;6214994;23;20027;-74
2021/03/10 10:53:53;;;;;;;5.20;2.40;;;;;;;7.73;87.24;99566.06;6269716;22;20018;-75
2021/03/10 10:56:19;;;;;;;3.10;1.63;;;;;;;7.79;87.89;99578.59;6217093;23;20038;-74
2021/03/10 10:58:52;;;;;;;1.60;1.10;;;;;;;7.72;87.85;99567.94;6241769;23;20001;-75
2021/03/10 11:01:17;;;;;;;2.83;1.65;;;;;;;7.72;87.44;99588.91;6238322;23;20450;-75
2021/03/10 11:03:43;;;;;;;2.20;1.60;;;;;;;7.60;87.97;99562.75;6192592;23;20004;-75
2021/03/10 11:06:09;;;;;;;4.38;1.27;;;;;;;7.65;88.22;99570.09;6258678;22;20015;-75
2021/03/10 11:08:52;;;;;;;2.58;1.58;;;;;;;7.66;88.34;99566.31;6267829;22;20008;-75
2021/03/10 11:11:20;;;;;;;2.15;1.67;;;;;;;7.57;88.00;99581.53;6240914;23;20411;-74
2021/03/10 11:13:48;;;;;;;2.42;1.50;;;;;;;7.48;88.02;99554.81;6217470;23;20032;-74
2021/03/10 11:16:14;;;;;;;8.10;1.52;;;;;;;7.50;87.71;99560.81;6242041;23;20018;-74
2021/03/10 11:18:42;;;;;;;1.52;1.30;;;;;;;7.64;88.76;99566.56;6217803;23;20374;-75
2021/03/10 11:21:10;;;;;;;1.95;1.50;;;;;;;7.64;87.83;99541.28;6245152;23;20011;-74
2021/03/10 11:23:35;;;;;;;2.78;1.27;;;;;;;7.71;87.78;99539.13;6213406;23;20031;-73
2021/03/10 11:26:09;;;;;;;5.68;2.03;;;;;;;7.78;88.04;99534.22;6216312;23;20331;-75
2021/03/10 11:28:35;;;;;;;7.30;1.98;;;;;;;7.70;87.76;99515.69;6211363;23;20016;-74
2021/03/10 11:31:08;;;;;;;4.20;1.90;;;;;;;7.74;87.73;99527.69;6211604;23;20070;-74
2021/03/10 11:33:35;;;;;;;3.13;2.05;;;;;;;7.68;87.44;99506.97;6213518;23;20401;-75
2021/03/10 11:36:02;;;;;;;4.10;1.60;;;;;;;7.81;88.30;99505.63;6206692;23;20053;-74